Terminal Aerodrome Forecast
Issued by NWS Bismarck, ND

Home | Current Version | Previous Version | Graphics & Text | Print | Product List | Glossary Off
Versions: 1 2 3 4 5 6 7 8 9 10 11 12 13 14 15 16 17

000
FTUS43 KBIS 291502 AAA
TAFISN
TAF AMD
KISN 291502Z 2915/3012 19005KT 3SM FU SCT035
     FM291800 19015G21KT 5SM FU SCT040
     FM300300 14006KT P6SM FEW250=

USA.gov is the U.S. government's official web portal to all federal, state and local government web resources and services.